sensor_id;sensor_type;location;lat;lon;timestamp;P1;durP1;ratioP1;P2;durP2;ratioP2
74170;SDS011;62526;50.948;6.590;2023-06-14T00:00:21;6.47;;;5.07;;
74170;SDS011;62526;50.948;6.590;2023-06-14T00:02:48;7.28;;;5.90;;
74170;SDS011;62526;50.948;6.590;2023-06-14T00:05:15;13.45;;;5.50;;
74170;SDS011;62526;50.948;6.590;2023-06-14T00:07:42;11.20;;;5.62;;
74170;SDS011;62526;50.948;6.590;2023-06-14T00:10:09;8.38;;;5.50;;
74170;SDS011;62526;50.948;6.590;2023-06-14T00:12:36;11.32;;;6.37;;
74170;SDS011;62526;50.948;6.590;2023-06-14T00:15:04;10.27;;;5.80;;
74170;SDS011;62526;50.948;6.590;2023-06-14T00:17:31;10.77;;;5.85;;
74170;SDS011;62526;50.948;6.590;2023-06-14T00:19:59;10.38;;;5.80;;
74170;SDS011;62526;50.948;6.590;2023-06-14T00:22:25;10.05;;;5.65;;
74170;SDS011;62526;50.948;6.590;2023-06-14T00:24:52;7.70;;;5.80;;
74170;SDS011;62526;50.948;6.590;2023-06-14T00:27:18;8.52;;;5.82;;
74170;SDS011;62526;50.948;6.590;2023-06-14T00:29:45;8.85;;;6.55;;
74170;SDS011;62526;50.948;6.590;2023-06-14T00:32:11;6.97;;;5.53;;
74170;SDS011;62526;50.948;6.590;2023-06-14T00:34:38;7.32;;;5.60;;
74170;SDS011;62526;50.948;6.590;2023-06-14T00:37:05;9.63;;;5.72;;
74170;SDS011;62526;50.948;6.590;2023-06-14T00:39:31;8.57;;;6.05;;
74170;SDS011;62526;50.948;6.590;2023-06-14T00:41:58;7.45;;;5.87;;
74170;SDS011;62526;50.948;6.590;2023-06-14T00:44:25;10.23;;;5.90;;
74170;SDS011;62526;50.948;6.590;2023-06-14T00:46:52;8.43;;;6.18;;
74170;SDS011;62526;50.948;6.590;2023-06-14T00:49:20;9.88;;;6.05;;
74170;SDS011;62526;50.948;6.590;2023-06-14T00:51:46;7.50;;;5.37;;
74170;SDS011;62526;50.948;6.590;2023-06-14T00:54:13;8.80;;;5.97;;
74170;SDS011;62526;50.948;6.590;2023-06-14T00:56:40;9.18;;;5.72;;
74170;SDS011;62526;50.948;6.590;2023-06-14T00:59:07;11.12;;;5.55;;
74170;SDS011;62526;50.948;6.590;2023-06-14T01:01:33;7.65;;;5.30;;
74170;SDS011;62526;50.948;6.590;2023-06-14T01:04:00;7.45;;;5.18;;
74170;SDS011;62526;50.948;6.590;2023-06-14T01:06:30;11.60;;;6.15;;
74170;SDS011;62526;50.948;6.590;2023-06-14T01:09:04;10.55;;;5.55;;
74170;SDS011;62526;50.948;6.590;2023-06-14T01:11:32;10.38;;;5.95;;
74170;SDS011;62526;50.948;6.590;2023-06-14T01:13:58;7.05;;;5.62;;
74170;SDS011;62526;50.948;6.590;2023-06-14T01:16:24;7.30;;;5.50;;
74170;SDS011;62526;50.948;6.590;2023-06-14T01:18:52;12.27;;;6.25;;
74170;SDS011;62526;50.948;6.590;2023-06-14T01:21:20;9.20;;;5.37;;
74170;SDS011;62526;50.948;6.590;2023-06-14T01:23:46;6.53;;;5.30;;
74170;SDS011;62526;50.948;6.590;2023-06-14T01:26:13;5.85;;;5.03;;
74170;SDS011;62526;50.948;6.590;2023-06-14T01:28:40;8.70;;;5.15;;
74170;SDS011;62526;50.948;6.590;2023-06-14T01:31:07;8.30;;;5.55;;
74170;SDS011;62526;50.948;6.590;2023-06-14T01:33:33;7.22;;;5.18;;
74170;SDS011;62526;50.948;6.590;2023-06-14T01:36:01;7.00;;;5.28;;
74170;SDS011;62526;50.948;6.590;2023-06-14T01:38:28;5.50;;;4.82;;
74170;SDS011;62526;50.948;6.590;2023-06-14T01:40:55;8.27;;;5.35;;
74170;SDS011;62526;50.948;6.590;2023-06-14T01:43:21;6.90;;;5.05;;
74170;SDS011;62526;50.948;6.590;2023-06-14T01:45:48;8.57;;;5.53;;
74170;SDS011;62526;50.948;6.590;2023-06-14T01:48:15;11.15;;;5.78;;
74170;SDS011;62526;50.948;6.590;2023-06-14T01:50:41;7.82;;;5.05;;
74170;SDS011;62526;50.948;6.590;2023-06-14T01:53:08;7.80;;;4.87;;
74170;SDS011;62526;50.948;6.590;2023-06-14T01:55:36;9.88;;;5.15;;
74170;SDS011;62526;50.948;6.590;2023-06-14T01:58:05;8.52;;;5.00;;
74170;SDS011;62526;50.948;6.590;2023-06-14T02:00:31;8.35;;;6.07;;
74170;SDS011;62526;50.948;6.590;2023-06-14T02:02:58;11.02;;;5.30;;
74170;SDS011;62526;50.948;6.590;2023-06-14T02:05:24;7.97;;;5.35;;
74170;SDS011;62526;50.948;6.590;2023-06-14T02:07:51;10.23;;;5.53;;
74170;SDS011;62526;50.948;6.590;2023-06-14T02:10:18;8.13;;;5.00;;
74170;SDS011;62526;50.948;6.590;2023-06-14T02:12:44;7.05;;;4.95;;
74170;SDS011;62526;50.948;6.590;2023-06-14T02:15:11;6.68;;;5.35;;
74170;SDS011;62526;50.948;6.590;2023-06-14T02:17:38;10.98;;;5.47;;
74170;SDS011;62526;50.948;6.590;2023-06-14T02:20:05;6.30;;;5.53;;
74170;SDS011;62526;50.948;6.590;2023-06-14T02:22:32;14.55;;;6.05;;
74170;SDS011;62526;50.948;6.590;2023-06-14T02:24:59;7.30;;;5.62;;
74170;SDS011;62526;50.948;6.590;2023-06-14T02:27:25;7.25;;;5.68;;
74170;SDS011;62526;50.948;6.590;2023-06-14T02:29:52;11.02;;;5.40;;
74170;SDS011;62526;50.948;6.590;2023-06-14T02:32:18;11.70;;;6.20;;
74170;SDS011;62526;50.948;6.590;2023-06-14T02:34:45;7.18;;;5.50;;
74170;SDS011;62526;50.948;6.590;2023-06-14T02:37:12;8.40;;;6.25;;
74170;SDS011;62526;50.948;6.590;2023-06-14T02:39:38;8.40;;;6.05;;
74170;SDS011;62526;50.948;6.590;2023-06-14T02:42:06;13.10;;;5.82;;
74170;SDS011;62526;50.948;6.590;2023-06-14T02:44:33;7.00;;;5.55;;
74170;SDS011;62526;50.948;6.590;2023-06-14T02:46:59;10.17;;;6.03;;
74170;SDS011;62526;50.948;6.590;2023-06-14T02:49:26;12.70;;;6.47;;
74170;SDS011;62526;50.948;6.590;2023-06-14T02:51:52;11.38;;;6.10;;
74170;SDS011;62526;50.948;6.590;2023-06-14T02:54:20;9.63;;;5.68;;
74170;SDS011;62526;50.948;6.590;2023-06-14T02:56:47;11.07;;;6.28;;
74170;SDS011;62526;50.948;6.590;2023-06-14T02:59:13;7.72;;;5.80;;
74170;SDS011;62526;50.948;6.590;2023-06-14T03:01:40;6.05;;;5.05;;
74170;SDS011;62526;50.948;6.590;2023-06-14T03:04:07;9.35;;;5.62;;
74170;SDS011;62526;50.948;6.590;2023-06-14T03:06:33;11.80;;;5.43;;
74170;SDS011;62526;50.948;6.590;2023-06-14T03:09:00;10.30;;;6.13;;
74170;SDS011;62526;50.948;6.590;2023-06-14T03:11:26;10.27;;;6.75;;
74170;SDS011;62526;50.948;6.590;2023-06-14T03:13:53;10.73;;;6.20;;
74170;SDS011;62526;50.948;6.590;2023-06-14T03:16:20;8.07;;;6.70;;
74170;SDS011;62526;50.948;6.590;2023-06-14T03:18:49;8.17;;;6.23;;
74170;SDS011;62526;50.948;6.590;2023-06-14T03:21:16;8.87;;;6.33;;
74170;SDS011;62526;50.948;6.590;2023-06-14T03:23:43;10.37;;;6.17;;
74170;SDS011;62526;50.948;6.590;2023-06-14T03:26:11;10.00;;;5.97;;
74170;SDS011;62526;50.948;6.590;2023-06-14T03:28:39;7.27;;;6.43;;
74170;SDS011;62526;50.948;6.590;2023-06-14T03:31:05;8.27;;;6.33;;
74170;SDS011;62526;50.948;6.590;2023-06-14T03:33:33;9.30;;;5.68;;
74170;SDS011;62526;50.948;6.590;2023-06-14T03:36:00;9.63;;;6.23;;
74170;SDS011;62526;50.948;6.590;2023-06-14T03:38:26;7.30;;;6.23;;
74170;SDS011;62526;50.948;6.590;2023-06-14T03:40:53;7.63;;;6.20;;
74170;SDS011;62526;50.948;6.590;2023-06-14T03:43:20;10.33;;;5.90;;
74170;SDS011;62526;50.948;6.590;2023-06-14T03:45:46;9.88;;;6.05;;
74170;SDS011;62526;50.948;6.590;2023-06-14T03:48:13;8.55;;;6.57;;
74170;SDS011;62526;50.948;6.590;2023-06-14T03:50:40;7.62;;;6.00;;
74170;SDS011;62526;50.948;6.590;2023-06-14T03:53:07;7.85;;;5.72;;
74170;SDS011;62526;50.948;6.590;2023-06-14T03:55:35;8.23;;;6.47;;
74170;SDS011;62526;50.948;6.590;2023-06-14T03:58:03;6.80;;;6.10;;
74170;SDS011;62526;50.948;6.590;2023-06-14T04:00:29;8.82;;;5.93;;
74170;SDS011;62526;50.948;6.590;2023-06-14T04:02:56;11.18;;;6.60;;
74170;SDS011;62526;50.948;6.590;2023-06-14T04:05:24;8.27;;;6.87;;
74170;SDS011;62526;50.948;6.590;2023-06-14T04:07:50;9.02;;;6.32;;
74170;SDS011;62526;50.948;6.590;2023-06-14T04:10:17;12.63;;;6.67;;
74170;SDS011;62526;50.948;6.590;2023-06-14T04:12:43;12.67;;;6.40;;
74170;SDS011;62526;50.948;6.590;2023-06-14T04:15:10;8.63;;;6.30;;
74170;SDS011;62526;50.948;6.590;2023-06-14T04:17:36;11.90;;;7.40;;
74170;SDS011;62526;50.948;6.590;2023-06-14T04:20:03;11.17;;;6.70;;
74170;SDS011;62526;50.948;6.590;2023-06-14T04:22:31;15.13;;;6.90;;
74170;SDS011;62526;50.948;6.590;2023-06-14T04:24:57;11.47;;;6.80;;
74170;SDS011;62526;50.948;6.590;2023-06-14T04:27:25;10.77;;;6.23;;
74170;SDS011;62526;50.948;6.590;2023-06-14T04:29:51;10.37;;;6.50;;
74170;SDS011;62526;50.948;6.590;2023-06-14T04:32:18;10.60;;;6.23;;
74170;SDS011;62526;50.948;6.590;2023-06-14T04:34:45;11.30;;;6.67;;
74170;SDS011;62526;50.948;6.590;2023-06-14T04:37:11;9.50;;;6.67;;
74170;SDS011;62526;50.948;6.590;2023-06-14T04:39:38;13.83;;;6.83;;
74170;SDS011;62526;50.948;6.590;2023-06-14T04:42:05;9.00;;;6.40;;
74170;SDS011;62526;50.948;6.590;2023-06-14T04:44:32;8.30;;;6.27;;
74170;SDS011;62526;50.948;6.590;2023-06-14T04:46:59;10.90;;;6.45;;
74170;SDS011;62526;50.948;6.590;2023-06-14T04:49:25;8.57;;;6.43;;
74170;SDS011;62526;50.948;6.590;2023-06-14T04:51:52;9.60;;;6.13;;
74170;SDS011;62526;50.948;6.590;2023-06-14T04:54:21;11.02;;;5.65;;
74170;SDS011;62526;50.948;6.590;2023-06-14T04:56:47;11.25;;;6.57;;
74170;SDS011;62526;50.948;6.590;2023-06-14T04:59:14;17.02;;;5.97;;
74170;SDS011;62526;50.948;6.590;2023-06-14T05:01:40;13.07;;;6.50;;
74170;SDS011;62526;50.948;6.590;2023-06-14T05:04:07;12.50;;;6.75;;
74170;SDS011;62526;50.948;6.590;2023-06-14T05:06:34;16.37;;;6.12;;
74170;SDS011;62526;50.948;6.590;2023-06-14T05:09:02;13.43;;;5.80;;
74170;SDS011;62526;50.948;6.590;2023-06-14T05:11:29;9.40;;;5.40;;
74170;SDS011;62526;50.948;6.590;2023-06-14T05:13:55;15.05;;;5.82;;
74170;SDS011;62526;50.948;6.590;2023-06-14T05:16:22;11.50;;;6.43;;
74170;SDS011;62526;50.948;6.590;2023-06-14T05:18:48;7.15;;;5.55;;
74170;SDS011;62526;50.948;6.590;2023-06-14T05:21:15;11.60;;;5.07;;
74170;SDS011;62526;50.948;6.590;2023-06-14T05:23:43;20.15;;;6.07;;
74170;SDS011;62526;50.948;6.590;2023-06-14T05:26:09;11.98;;;5.55;;
74170;SDS011;62526;50.948;6.590;2023-06-14T05:28:36;8.48;;;4.80;;
74170;SDS011;62526;50.948;6.590;2023-06-14T05:31:03;8.73;;;5.20;;
74170;SDS011;62526;50.948;6.590;2023-06-14T05:33:29;9.13;;;5.15;;
74170;SDS011;62526;50.948;6.590;2023-06-14T05:35:56;8.80;;;5.00;;
74170;SDS011;62526;50.948;6.590;2023-06-14T05:38:26;8.13;;;4.82;;
74170;SDS011;62526;50.948;6.590;2023-06-14T05:40:52;10.68;;;4.37;;
74170;SDS011;62526;50.948;6.590;2023-06-14T05:43:20;11.63;;;4.95;;
74170;SDS011;62526;50.948;6.590;2023-06-14T05:45:46;6.87;;;5.07;;
74170;SDS011;62526;50.948;6.590;2023-06-14T05:48:13;9.13;;;4.90;;
74170;SDS011;62526;50.948;6.590;2023-06-14T05:50:39;12.57;;;5.10;;
74170;SDS011;62526;50.948;6.590;2023-06-14T05:53:06;12.13;;;4.80;;
74170;SDS011;62526;50.948;6.590;2023-06-14T05:55:33;10.82;;;4.43;;
74170;SDS011;62526;50.948;6.590;2023-06-14T05:57:59;6.00;;;4.62;;
74170;SDS011;62526;50.948;6.590;2023-06-14T06:00:26;7.43;;;4.87;;
74170;SDS011;62526;50.948;6.590;2023-06-14T06:02:53;10.38;;;5.32;;
74170;SDS011;62526;50.948;6.590;2023-06-14T06:05:19;9.77;;;4.85;;
74170;SDS011;62526;50.948;6.590;2023-06-14T06:07:46;9.45;;;4.68;;
74170;SDS011;62526;50.948;6.590;2023-06-14T06:10:13;7.75;;;5.40;;
74170;SDS011;62526;50.948;6.590;2023-06-14T06:12:41;6.82;;;4.40;;
74170;SDS011;62526;50.948;6.590;2023-06-14T06:15:08;7.78;;;5.03;;
74170;SDS011;62526;50.948;6.590;2023-06-14T06:17:35;8.98;;;4.90;;
74170;SDS011;62526;50.948;6.590;2023-06-14T06:20:05;9.32;;;4.85;;
74170;SDS011;62526;50.948;6.590;2023-06-14T06:22:33;11.05;;;4.80;;
74170;SDS011;62526;50.948;6.590;2023-06-14T06:25:00;10.32;;;4.68;;
74170;SDS011;62526;50.948;6.590;2023-06-14T06:27:26;11.48;;;4.78;;
74170;SDS011;62526;50.948;6.590;2023-06-14T06:29:54;8.95;;;4.15;;
74170;SDS011;62526;50.948;6.590;2023-06-14T06:32:21;9.80;;;4.25;;
74170;SDS011;62526;50.948;6.590;2023-06-14T06:34:47;10.60;;;3.97;;
74170;SDS011;62526;50.948;6.590;2023-06-14T06:37:14;9.57;;;4.18;;
74170;SDS011;62526;50.948;6.590;2023-06-14T06:39:40;7.22;;;4.32;;
74170;SDS011;62526;50.948;6.590;2023-06-14T06:42:07;8.43;;;4.10;;
74170;SDS011;62526;50.948;6.590;2023-06-14T06:44:34;11.45;;;4.10;;
74170;SDS011;62526;50.948;6.590;2023-06-14T06:47:01;5.85;;;4.20;;
74170;SDS011;62526;50.948;6.590;2023-06-14T06:49:28;7.55;;;3.90;;
74170;SDS011;62526;50.948;6.590;2023-06-14T06:51:59;8.95;;;4.57;;
74170;SDS011;62526;50.948;6.590;2023-06-14T06:54:26;7.18;;;3.65;;
74170;SDS011;62526;50.948;6.590;2023-06-14T06:56:53;4.95;;;3.85;;
74170;SDS011;62526;50.948;6.590;2023-06-14T06:59:19;4.95;;;3.70;;
74170;SDS011;62526;50.948;6.590;2023-06-14T07:01:46;5.07;;;3.22;;
74170;SDS011;62526;50.948;6.590;2023-06-14T07:04:13;4.57;;;3.50;;
74170;SDS011;62526;50.948;6.590;2023-06-14T07:06:39;6.47;;;3.22;;
74170;SDS011;62526;50.948;6.590;2023-06-14T07:09:06;4.70;;;3.15;;
74170;SDS011;62526;50.948;6.590;2023-06-14T07:11:32;6.68;;;3.12;;
74170;SDS011;62526;50.948;6.590;2023-06-14T07:13:59;5.50;;;3.28;;
74170;SDS011;62526;50.948;6.590;2023-06-14T07:16:25;7.68;;;3.33;;
74170;SDS011;62526;50.948;6.590;2023-06-14T07:18:52;8.95;;;3.40;;
74170;SDS011;62526;50.948;6.590;2023-06-14T07:21:19;5.95;;;3.20;;
74170;SDS011;62526;50.948;6.590;2023-06-14T07:23:46;4.47;;;3.12;;
74170;SDS011;62526;50.948;6.590;2023-06-14T07:26:13;9.15;;;3.17;;
74170;SDS011;62526;50.948;6.590;2023-06-14T07:28:40;5.75;;;2.80;;
74170;SDS011;62526;50.948;6.590;2023-06-14T07:31:07;5.45;;;3.00;;
74170;SDS011;62526;50.948;6.590;2023-06-14T07:33:34;7.18;;;3.50;;
74170;SDS011;62526;50.948;6.590;2023-06-14T07:36:01;7.25;;;3.67;;
74170;SDS011;62526;50.948;6.590;2023-06-14T07:38:28;6.20;;;3.12;;
74170;SDS011;62526;50.948;6.590;2023-06-14T07:40:56;9.43;;;3.67;;
74170;SDS011;62526;50.948;6.590;2023-06-14T07:43:22;10.82;;;3.62;;
74170;SDS011;62526;50.948;6.590;2023-06-14T07:45:49;5.87;;;3.75;;
74170;SDS011;62526;50.948;6.590;2023-06-14T07:48:16;7.25;;;2.97;;
74170;SDS011;62526;50.948;6.590;2023-06-14T07:50:43;10.02;;;3.35;;
74170;SDS011;62526;50.948;6.590;2023-06-14T07:53:10;8.60;;;3.60;;
74170;SDS011;62526;50.948;6.590;2023-06-14T07:55:36;3.35;;;3.05;;
74170;SDS011;62526;50.948;6.590;2023-06-14T07:58:03;6.57;;;3.42;;
74170;SDS011;62526;50.948;6.590;2023-06-14T08:00:30;7.30;;;3.20;;
74170;SDS011;62526;50.948;6.590;2023-06-14T08:02:57;9.73;;;3.25;;
74170;SDS011;62526;50.948;6.590;2023-06-14T08:05:24;9.00;;;3.60;;
74170;SDS011;62526;50.948;6.590;2023-06-14T08:07:51;5.18;;;3.60;;
74170;SDS011;62526;50.948;6.590;2023-06-14T08:10:18;5.78;;;3.50;;
74170;SDS011;62526;50.948;6.590;2023-06-14T08:12:46;4.50;;;3.35;;
74170;SDS011;62526;50.948;6.590;2023-06-14T08:15:12;6.03;;;3.20;;
74170;SDS011;62526;50.948;6.590;2023-06-14T08:17:39;8.75;;;2.90;;
74170;SDS011;62526;50.948;6.590;2023-06-14T08:20:06;4.30;;;3.00;;
74170;SDS011;62526;50.948;6.590;2023-06-14T08:22:34;6.93;;;3.37;;
74170;SDS011;62526;50.948;6.590;2023-06-14T08:25:01;5.47;;;2.78;;
74170;SDS011;62526;50.948;6.590;2023-06-14T08:27:29;5.22;;;2.87;;
74170;SDS011;62526;50.948;6.590;2023-06-14T08:29:56;4.85;;;2.45;;
74170;SDS011;62526;50.948;6.590;2023-06-14T08:32:23;6.55;;;3.03;;
74170;SDS011;62526;50.948;6.590;2023-06-14T08:34:51;6.37;;;2.80;;
74170;SDS011;62526;50.948;6.590;2023-06-14T08:37:17;7.90;;;2.70;;
74170;SDS011;62526;50.948;6.590;2023-06-14T08:39:46;4.30;;;2.42;;
74170;SDS011;62526;50.948;6.590;2023-06-14T08:42:14;6.18;;;3.90;;
74170;SDS011;62526;50.948;6.590;2023-06-14T08:44:41;3.37;;;2.60;;
74170;SDS011;62526;50.948;6.590;2023-06-14T08:47:08;4.82;;;2.30;;
74170;SDS011;62526;50.948;6.590;2023-06-14T08:49:35;6.15;;;2.60;;
74170;SDS011;62526;50.948;6.590;2023-06-14T08:52:02;2.40;;;2.20;;
74170;SDS011;62526;50.948;6.590;2023-06-14T08:54:29;3.62;;;2.30;;
74170;SDS011;62526;50.948;6.590;2023-06-14T08:56:56;18.00;;;2.67;;
74170;SDS011;62526;50.948;6.590;2023-06-14T08:59:26;3.58;;;2.00;;
74170;SDS011;62526;50.948;6.590;2023-06-14T09:01:53;3.65;;;2.22;;
74170;SDS011;62526;50.948;6.590;2023-06-14T09:04:20;3.35;;;2.30;;
74170;SDS011;62526;50.948;6.590;2023-06-14T09:06:48;3.62;;;2.00;;
74170;SDS011;62526;50.948;6.590;2023-06-14T09:09:19;3.62;;;2.10;;
74170;SDS011;62526;50.948;6.590;2023-06-14T09:11:44;2.58;;;2.08;;
74170;SDS011;62526;50.948;6.590;2023-06-14T09:14:12;2.00;;;1.80;;
74170;SDS011;62526;50.948;6.590;2023-06-14T09:16:39;2.75;;;1.92;;
74170;SDS011;62526;50.948;6.590;2023-06-14T09:19:06;4.03;;;2.20;;
74170;SDS011;62526;50.948;6.590;2023-06-14T09:21:35;5.00;;;1.83;;
74170;SDS011;62526;50.948;6.590;2023-06-14T09:24:02;3.05;;;2.30;;
74170;SDS011;62526;50.948;6.590;2023-06-14T09:26:29;3.67;;;1.98;;
74170;SDS011;62526;50.948;6.590;2023-06-14T09:28:56;5.45;;;2.20;;
74170;SDS011;62526;50.948;6.590;2023-06-14T09:31:22;4.60;;;2.05;;
74170;SDS011;62526;50.948;6.590;2023-06-14T09:33:49;5.85;;;2.00;;
74170;SDS011;62526;50.948;6.590;2023-06-14T09:36:17;2.30;;;1.90;;
74170;SDS011;62526;50.948;6.590;2023-06-14T09:38:51;4.45;;;2.20;;
74170;SDS011;62526;50.948;6.590;2023-06-14T09:41:18;5.57;;;2.50;;
74170;SDS011;62526;50.948;6.590;2023-06-14T09:43:46;5.37;;;2.25;;
74170;SDS011;62526;50.948;6.590;2023-06-14T09:46:13;4.07;;;2.10;;
74170;SDS011;62526;50.948;6.590;2023-06-14T09:48:39;5.15;;;2.20;;
74170;SDS011;62526;50.948;6.590;2023-06-14T09:51:07;4.00;;;2.12;;
74170;SDS011;62526;50.948;6.590;2023-06-14T09:53:33;3.35;;;2.53;;
74170;SDS011;62526;50.948;6.590;2023-06-14T09:56:00;3.12;;;2.58;;
74170;SDS011;62526;50.948;6.590;2023-06-14T09:58:28;3.80;;;2.10;;
74170;SDS011;62526;50.948;6.590;2023-06-14T10:00:55;3.10;;;2.00;;
74170;SDS011;62526;50.948;6.590;2023-06-14T10:03:25;7.30;;;2.67;;
74170;SDS011;62526;50.948;6.590;2023-06-14T10:05:51;5.22;;;2.45;;
74170;SDS011;62526;50.948;6.590;2023-06-14T10:08:19;3.12;;;2.25;;
74170;SDS011;62526;50.948;6.590;2023-06-14T10:10:46;3.92;;;2.30;;
74170;SDS011;62526;50.948;6.590;2023-06-14T10:13:13;4.25;;;2.40;;
74170;SDS011;62526;50.948;6.590;2023-06-14T10:15:48;4.47;;;2.12;;
74170;SDS011;62526;50.948;6.590;2023-06-14T10:18:17;3.55;;;2.22;;
74170;SDS011;62526;50.948;6.590;2023-06-14T10:21:05;6.20;;;2.15;;
74170;SDS011;62526;50.948;6.590;2023-06-14T10:23:30;3.67;;;2.50;;
74170;SDS011;62526;50.948;6.590;2023-06-14T10:25:57;4.32;;;2.30;;
74170;SDS011;62526;50.948;6.590;2023-06-14T10:28:23;6.40;;;2.00;;
74170;SDS011;62526;50.948;6.590;2023-06-14T10:33:34;5.95;;;2.60;;
74170;SDS011;62526;50.948;6.590;2023-06-14T10:38:58;3.20;;;2.30;;
74170;SDS011;62526;50.948;6.590;2023-06-14T10:41:35;2.92;;;2.20;;
74170;SDS011;62526;50.948;6.590;2023-06-14T10:44:38;3.58;;;2.42;;
74170;SDS011;62526;50.948;6.590;2023-06-14T10:47:05;2.92;;;2.65;;
74170;SDS011;62526;50.948;6.590;2023-06-14T10:49:38;4.35;;;1.98;;
74170;SDS011;62526;50.948;6.590;2023-06-14T10:52:07;3.50;;;1.98;;
74170;SDS011;62526;50.948;6.590;2023-06-14T10:54:35;4.55;;;2.37;;
74170;SDS011;62526;50.948;6.590;2023-06-14T10:57:04;4.80;;;2.08;;
74170;SDS011;62526;50.948;6.590;2023-06-14T10:59:31;5.32;;;2.03;;
74170;SDS011;62526;50.948;6.590;2023-06-14T11:02:27;7.03;;;2.30;;
74170;SDS011;62526;50.948;6.590;2023-06-14T11:04:47;3.72;;;2.40;;
74170;SDS011;62526;50.948;6.590;2023-06-14T11:12:41;4.47;;;2.08;;
74170;SDS011;62526;50.948;6.590;2023-06-14T11:15:08;6.55;;;1.95;;
74170;SDS011;62526;50.948;6.590;2023-06-14T11:17:34;3.17;;;2.25;;
74170;SDS011;62526;50.948;6.590;2023-06-14T11:20:10;2.90;;;2.10;;
74170;SDS011;62526;50.948;6.590;2023-06-14T11:22:41;2.50;;;2.03;;
74170;SDS011;62526;50.948;6.590;2023-06-14T11:25:09;2.67;;;1.80;;
74170;SDS011;62526;50.948;6.590;2023-06-14T11:27:36;6.70;;;2.00;;
74170;SDS011;62526;50.948;6.590;2023-06-14T11:30:02;5.15;;;2.33;;
74170;SDS011;62526;50.948;6.590;2023-06-14T11:32:31;2.65;;;2.00;;
74170;SDS011;62526;50.948;6.590;2023-06-14T11:34:56;2.80;;;2.20;;
74170;SDS011;62526;50.948;6.590;2023-06-14T11:37:23;4.22;;;2.30;;
74170;SDS011;62526;50.948;6.590;2023-06-14T11:39:50;4.72;;;2.20;;
74170;SDS011;62526;50.948;6.590;2023-06-14T11:42:18;4.37;;;2.20;;
74170;SDS011;62526;50.948;6.590;2023-06-14T11:44:45;5.75;;;1.95;;
74170;SDS011;62526;50.948;6.590;2023-06-14T11:47:12;3.28;;;1.98;;
74170;SDS011;62526;50.948;6.590;2023-06-14T11:49:41;4.07;;;2.00;;
74170;SDS011;62526;50.948;6.590;2023-06-14T11:52:08;6.78;;;2.20;;
74170;SDS011;62526;50.948;6.590;2023-06-14T11:54:34;4.57;;;2.20;;
74170;SDS011;62526;50.948;6.590;2023-06-14T11:57:01;6.37;;;3.00;;
74170;SDS011;62526;50.948;6.590;2023-06-14T11:59:28;7.62;;;2.65;;
74170;SDS011;62526;50.948;6.590;2023-06-14T12:01:56;5.55;;;2.25;;
74170;SDS011;62526;50.948;6.590;2023-06-14T12:04:23;2.60;;;2.17;;
74170;SDS011;62526;50.948;6.590;2023-06-14T12:06:50;6.40;;;2.50;;
74170;SDS011;62526;50.948;6.590;2023-06-14T12:09:16;3.33;;;2.33;;
74170;SDS011;62526;50.948;6.590;2023-06-14T12:11:44;3.65;;;2.30;;
74170;SDS011;62526;50.948;6.590;2023-06-14T12:14:11;8.75;;;2.60;;
74170;SDS011;62526;50.948;6.590;2023-06-14T12:16:38;7.95;;;2.65;;
74170;SDS011;62526;50.948;6.590;2023-06-14T12:19:15;4.25;;;2.50;;
74170;SDS011;62526;50.948;6.590;2023-06-14T12:21:41;2.85;;;2.15;;
74170;SDS011;62526;50.948;6.590;2023-06-14T12:24:09;3.10;;;2.15;;
74170;SDS011;62526;50.948;6.590;2023-06-14T12:26:37;5.50;;;2.28;;
74170;SDS011;62526;50.948;6.590;2023-06-14T12:29:04;6.47;;;2.37;;
74170;SDS011;62526;50.948;6.590;2023-06-14T12:31:31;5.28;;;2.25;;
74170;SDS011;62526;50.948;6.590;2023-06-14T12:33:57;4.20;;;2.50;;
74170;SDS011;62526;50.948;6.590;2023-06-14T12:36:24;5.95;;;2.33;;
74170;SDS011;62526;50.948;6.590;2023-06-14T12:38:50;5.55;;;2.45;;
74170;SDS011;62526;50.948;6.590;2023-06-14T12:41:21;5.87;;;2.40;;
74170;SDS011;62526;50.948;6.590;2023-06-14T12:43:48;8.63;;;2.75;;
74170;SDS011;62526;50.948;6.590;2023-06-14T12:46:15;2.87;;;2.10;;
74170;SDS011;62526;50.948;6.590;2023-06-14T12:48:42;5.05;;;2.10;;
74170;SDS011;62526;50.948;6.590;2023-06-14T12:51:10;3.22;;;2.05;;
74170;SDS011;62526;50.948;6.590;2023-06-14T12:53:36;3.62;;;1.87;;
74170;SDS011;62526;50.948;6.590;2023-06-14T12:56:03;4.90;;;2.28;;
74170;SDS011;62526;50.948;6.590;2023-06-14T12:58:30;5.50;;;2.37;;
74170;SDS011;62526;50.948;6.590;2023-06-14T13:00:56;4.43;;;2.50;;
74170;SDS011;62526;50.948;6.590;2023-06-14T13:03:23;1.87;;;1.67;;
74170;SDS011;62526;50.948;6.590;2023-06-14T13:05:50;8.30;;;2.25;;
74170;SDS011;62526;50.948;6.590;2023-06-14T13:08:17;5.10;;;2.20;;
74170;SDS011;62526;50.948;6.590;2023-06-14T13:10:44;6.35;;;2.33;;
74170;SDS011;62526;50.948;6.590;2023-06-14T13:13:10;2.87;;;2.53;;
74170;SDS011;62526;50.948;6.590;2023-06-14T13:15:37;4.28;;;1.95;;
74170;SDS011;62526;50.948;6.590;2023-06-14T13:18:03;3.15;;;2.10;;
74170;SDS011;62526;50.948;6.590;2023-06-14T13:20:31;5.03;;;2.00;;
74170;SDS011;62526;50.948;6.590;2023-06-14T13:22:59;4.30;;;2.20;;
74170;SDS011;62526;50.948;6.590;2023-06-14T13:25:24;5.95;;;2.50;;
74170;SDS011;62526;50.948;6.590;2023-06-14T13:27:51;5.75;;;2.22;;
74170;SDS011;62526;50.948;6.590;2023-06-14T13:30:18;2.42;;;2.05;;
74170;SDS011;62526;50.948;6.590;2023-06-14T13:35:31;3.75;;;2.00;;
74170;SDS011;62526;50.948;6.590;2023-06-14T13:37:58;2.25;;;2.00;;
74170;SDS011;62526;50.948;6.590;2023-06-14T13:40:24;3.28;;;1.90;;
74170;SDS011;62526;50.948;6.590;2023-06-14T13:42:51;4.70;;;2.15;;
74170;SDS011;62526;50.948;6.590;2023-06-14T13:45:18;8.23;;;2.15;;
74170;SDS011;62526;50.948;6.590;2023-06-14T13:47:44;2.15;;;1.73;;
74170;SDS011;62526;50.948;6.590;2023-06-14T13:50:11;2.80;;;1.98;;
74170;SDS011;62526;50.948;6.590;2023-06-14T13:52:38;9.43;;;2.70;;
74170;SDS011;62526;50.948;6.590;2023-06-14T13:55:05;2.10;;;1.77;;
74170;SDS011;62526;50.948;6.590;2023-06-14T13:57:32;3.78;;;1.90;;
74170;SDS011;62526;50.948;6.590;2023-06-14T13:59:59;4.82;;;2.37;;
74170;SDS011;62526;50.948;6.590;2023-06-14T14:02:26;2.03;;;1.87;;
74170;SDS011;62526;50.948;6.590;2023-06-14T14:04:52;2.45;;;1.65;;
74170;SDS011;62526;50.948;6.590;2023-06-14T14:07:20;4.35;;;1.60;;
74170;SDS011;62526;50.948;6.590;2023-06-14T14:09:46;5.90;;;2.08;;
74170;SDS011;62526;50.948;6.590;2023-06-14T14:12:14;4.43;;;1.95;;
74170;SDS011;62526;50.948;6.590;2023-06-14T14:14:41;1.85;;;1.75;;
74170;SDS011;62526;50.948;6.590;2023-06-14T14:17:07;2.12;;;1.85;;
74170;SDS011;62526;50.948;6.590;2023-06-14T14:19:34;4.47;;;2.12;;
74170;SDS011;62526;50.948;6.590;2023-06-14T14:22:01;1.90;;;1.80;;
74170;SDS011;62526;50.948;6.590;2023-06-14T14:24:27;2.95;;;2.10;;
74170;SDS011;62526;50.948;6.590;2023-06-14T14:26:55;4.40;;;1.85;;
74170;SDS011;62526;50.948;6.590;2023-06-14T14:29:21;2.95;;;1.80;;
74170;SDS011;62526;50.948;6.590;2023-06-14T14:31:48;4.90;;;2.10;;
74170;SDS011;62526;50.948;6.590;2023-06-14T14:34:15;4.00;;;1.98;;
74170;SDS011;62526;50.948;6.590;2023-06-14T14:36:43;5.40;;;2.10;;
74170;SDS011;62526;50.948;6.590;2023-06-14T14:39:09;2.50;;;2.00;;
74170;SDS011;62526;50.948;6.590;2023-06-14T14:41:36;2.70;;;2.00;;
74170;SDS011;62526;50.948;6.590;2023-06-14T14:44:02;1.92;;;1.73;;
74170;SDS011;62526;50.948;6.590;2023-06-14T14:46:29;2.67;;;1.87;;
74170;SDS011;62526;50.948;6.590;2023-06-14T14:48:56;4.15;;;1.87;;
74170;SDS011;62526;50.948;6.590;2023-06-14T14:51:22;3.10;;;1.80;;
74170;SDS011;62526;50.948;6.590;2023-06-14T14:53:49;2.22;;;1.55;;
74170;SDS011;62526;50.948;6.590;2023-06-14T14:56:16;2.17;;;1.98;;
74170;SDS011;62526;50.948;6.590;2023-06-14T14:58:43;3.05;;;2.00;;